Time;durP1;ratioP1;P1;durP2;ratioP2;P2;SDS_P1;SDS_P2;PMS_P1;PMS_P2;Temp;Humidity;BMP_temperature;BMP_pressure;BME280_temperature;BME280_humidity;BME280_pressure;Samples;Min_cycle;Max_cycle;Signal;HPM_P1;HPM_P2
2021/07/27 00:00:53;;;;;;;7.63;7.07;;;21.20;99.90;;;;;;5090308;28;20441;-72
2021/07/27 00:03:19;;;;;;;7.67;7.13;;;21.20;99.90;;;;;;5090826;28;20176;-72
2021/07/27 00:05:45;;;;;;;7.60;7.10;;;21.20;99.90;;;;;;5090527;28;20176;-71
2021/07/27 00:08:11;;;;;;;7.57;6.97;;;21.20;99.90;;;;;;5089741;28;20300;-71
2021/07/27 00:10:37;;;;;;;8.00;7.30;;;21.30;99.90;;;;;;5089708;28;20839;-71
2021/07/27 00:13:06;;;;;;;8.33;7.70;;;21.30;99.90;;;;;;5092795;28;20222;-73
2021/07/27 00:15:33;;;;;;;7.37;6.77;;;21.30;99.90;;;;;;5094565;28;20822;-72
2021/07/27 00:17:59;;;;;;;8.10;7.47;;;21.30;99.90;;;;;;5095488;28;20418;-72
2021/07/27 00:20:25;;;;;;;7.80;7.00;;;21.30;99.90;;;;;;5094736;28;20429;-72
2021/07/27 00:22:51;;;;;;;7.60;7.00;;;21.40;99.90;;;;;;5094757;28;20513;-71
2021/07/27 00:25:17;;;;;;;8.03;7.33;;;21.40;99.90;;;;;;5095330;28;20497;-71
2021/07/27 00:27:44;;;;;;;8.30;7.57;;;21.40;99.90;;;;;;5095786;28;20234;-72
2021/07/27 00:30:11;;;;;;;8.00;7.30;;;21.40;99.90;;;;;;5095829;28;20456;-72
2021/07/27 00:32:42;;;;;;;7.10;6.50;;;21.40;99.90;;;;;;5094531;28;20568;-72
2021/07/27 00:35:09;;;;;;;7.90;7.20;;;21.40;99.90;;;;;;5094865;28;20407;-71
2021/07/27 00:37:37;;;;;;;8.37;7.70;;;21.40;99.90;;;;;;5094527;28;20429;-72
2021/07/27 00:40:03;;;;;;;8.50;7.80;;;21.40;99.90;;;;;;5093991;28;20403;-71
2021/07/27 00:42:32;;;;;;;8.13;7.50;;;21.40;99.90;;;;;;5094204;28;20417;-72
2021/07/27 00:44:58;;;;;;;8.50;7.80;;;21.30;99.90;;;;;;5101831;28;20450;-71
2021/07/27 00:47:24;;;;;;;7.60;7.00;;;21.40;99.90;;;;;;5104853;28;20504;-72
2021/07/27 00:49:51;;;;;;;7.20;6.67;;;21.40;99.90;;;;;;5098568;28;20176;-72
2021/07/27 00:52:17;;;;;;;9.13;8.33;;;21.40;99.90;;;;;;5101920;28;20757;-77
2021/07/27 00:54:45;;;;;;;7.33;6.70;;;21.40;99.90;;;;;;5100438;28;20418;-72
2021/07/27 00:57:11;;;;;;;7.80;7.20;;;21.40;99.90;;;;;;5103363;28;20401;-71
2021/07/27 00:59:38;;;;;;;7.83;7.30;;;21.40;99.90;;;;;;5102186;28;20748;-72
2021/07/27 01:02:03;;;;;;;7.23;6.63;;;21.40;99.90;;;;;;5101603;28;20398;-71
2021/07/27 01:04:29;;;;;;;7.70;7.10;;;21.40;99.90;;;;;;5106500;28;20960;-71
2021/07/27 01:06:55;;;;;;;8.73;8.03;;;21.40;99.90;;;;;;5096506;28;20167;-71
2021/07/27 01:09:21;;;;;;;8.57;7.97;;;21.40;99.90;;;;;;5112806;28;20193;-72
2021/07/27 01:11:47;;;;;;;7.97;7.27;;;21.40;99.90;;;;;;5115006;28;20885;-72
2021/07/27 01:14:12;;;;;;;8.47;7.87;;;21.40;99.90;;;;;;5105694;28;20434;-71
2021/07/27 01:16:38;;;;;;;8.73;7.93;;;21.40;99.90;;;;;;5093703;28;20856;-71
2021/07/27 01:42:04;;;;;;;9.20;8.50;;;21.40;99.90;;;;;;5093291;28;20405;-72
2021/07/27 01:43:30;;;;;;;9.90;9.10;;;21.40;99.90;;;;;;5087028;28;20422;-72
2021/07/27 01:45:55;;;;;;;10.63;9.60;;;21.40;99.90;;;;;;5092826;28;20836;-72
2021/07/27 01:48:36;;;;;;;9.73;8.93;;;21.40;99.90;;;;;;5092811;28;20465;-72
2021/07/27 01:51:05;;;;;;;9.47;8.67;;;21.40;99.90;;;;;;5094004;28;20164;-72
2021/07/27 01:53:35;;;;;;;9.20;8.30;;;21.40;99.90;;;;;;5092940;28;20429;-72
2021/07/27 01:56:01;;;;;;;8.80;8.10;;;21.40;99.90;;;;;;5093297;28;20779;-71
2021/07/27 01:58:27;;;;;;;9.50;8.70;;;21.40;99.90;;;;;;5091661;28;20502;-72
2021/07/27 02:00:53;;;;;;;10.47;9.40;;;21.40;99.90;;;;;;5093855;28;20410;-72
2021/07/27 02:03:22;;;;;;;10.97;9.73;;;21.40;99.90;;;;;;5092410;28;20188;-76
2021/07/27 02:05:48;;;;;;;10.43;9.37;;;21.40;99.90;;;;;;5093513;28;20818;-71
2021/07/27 02:08:14;;;;;;;11.07;10.20;;;21.40;99.90;;;;;;5093129;28;20507;-71
2021/07/27 02:10:43;;;;;;;10.57;9.67;;;21.40;99.90;;;;;;5092670;28;20263;-72
2021/07/27 02:13:24;;;;;;;11.00;10.10;;;21.40;99.90;;;;;;5093271;28;20411;-72
2021/07/27 02:15:50;;;;;;;11.67;10.77;;;21.40;99.90;;;;;;5092172;28;20785;-71
2021/07/27 02:18:16;;;;;;;11.03;10.13;;;21.50;99.90;;;;;;5093014;28;20419;-71
2021/07/27 02:20:44;;;;;;;12.03;11.03;;;21.50;99.90;;;;;;5090948;28;20872;-71
2021/07/27 02:23:10;;;;;;;10.67;9.67;;;21.50;99.90;;;;;;5093483;28;20302;-72
2021/07/27 02:25:35;;;;;;;12.53;10.30;;;21.40;99.90;;;;;;5092020;28;20498;-72
2021/07/27 02:28:03;;;;;;;10.87;9.97;;;21.40;99.90;;;;;;5093062;28;20196;-71
2021/07/27 02:30:33;;;;;;;12.67;11.50;;;21.50;99.90;;;;;;5092361;28;20200;-72
2021/07/27 02:32:58;;;;;;;12.23;11.20;;;21.50;99.90;;;;;;5092580;28;20450;-72
2021/07/27 02:35:30;;;;;;;11.47;10.47;;;21.50;99.90;;;;;;5124637;27;20868;-72
2021/07/27 02:37:56;;;;;;;12.40;11.40;;;21.50;99.90;;;;;;5092593;28;20232;-72
2021/07/27 02:40:22;;;;;;;12.60;11.60;;;21.40;99.90;;;;;;5091980;28;20857;-77
2021/07/27 02:42:48;;;;;;;13.33;12.30;;;21.40;99.90;;;;;;5091458;28;20558;-72
2021/07/27 02:45:14;;;;;;;12.30;11.20;;;21.40;99.90;;;;;;5091099;28;20220;-72
2021/07/27 02:47:41;;;;;;;12.10;11.10;;;21.40;99.90;;;;;;5091882;28;20468;-71
2021/07/27 02:50:08;;;;;;;11.97;11.07;;;21.40;99.90;;;;;;5092853;28;20620;-71
2021/07/27 02:52:34;;;;;;;12.90;11.80;;;21.40;99.90;;;;;;5091568;28;20429;-71
2021/07/27 02:55:00;;;;;;;13.87;12.57;;;21.40;99.90;;;;;;5092881;28;20501;-71
2021/07/27 02:57:26;;;;;;;13.40;12.20;;;21.40;99.90;;;;;;5091646;28;20426;-71
2021/07/27 02:59:59;;;;;;;15.47;14.17;;;21.30;99.90;;;;;;5090791;28;20996;-71
2021/07/27 03:02:35;;;;;;;14.33;13.23;;;21.30;99.90;;;;;;5089578;28;20243;-75
2021/07/27 03:05:00;;;;;;;13.53;12.50;;;21.30;99.90;;;;;;5092756;28;20433;-71
2021/07/27 03:07:34;;;;;;;14.37;13.20;;;21.30;99.90;;;;;;5091664;28;20493;-71
2021/07/27 03:10:21;;;;;;;16.03;14.43;;;21.20;99.90;;;;;;5092115;28;20218;-70
2021/07/27 03:12:53;;;;;;;16.00;14.50;;;21.20;99.90;;;;;;5092184;28;20395;-70
2021/07/27 03:15:20;;;;;;;18.53;16.87;;;21.30;99.90;;;;;;5092786;28;20421;-71
2021/07/27 03:17:46;;;;;;;17.80;16.10;;;21.20;99.90;;;;;;5090245;28;20434;-71
2021/07/27 03:20:14;;;;;;;17.87;16.20;;;21.20;99.90;;;;;;5092372;28;20497;-70
2021/07/27 03:22:40;;;;;;;18.80;17.20;;;21.20;99.90;;;;;;5091179;28;20941;-71
2021/07/27 03:25:08;;;;;;;18.00;16.37;;;21.20;99.90;;;;;;5092296;28;20463;-70
2021/07/27 03:27:37;;;;;;;19.30;17.27;;;21.20;99.90;;;;;;5091447;28;20524;-71
2021/07/27 03:30:03;;;;;;;19.40;17.50;;;21.20;99.90;;;;;;5092222;28;20413;-71
2021/07/27 03:32:29;;;;;;;19.87;18.07;;;21.20;99.90;;;;;;5091548;28;20402;-71
2021/07/27 03:34:55;;;;;;;18.80;16.87;;;21.20;99.90;;;;;;5092089;28;20417;-71
2021/07/27 03:37:20;;;;;;;18.50;16.70;;;21.20;99.90;;;;;;5091990;28;20207;-71
2021/07/27 03:39:49;;;;;;;19.63;17.63;;;21.20;99.90;;;;;;5091285;28;20635;-73
2021/07/27 03:42:15;;;;;;;21.20;19.20;;;21.20;99.90;;;;;;5092286;28;20172;-72
2021/07/27 03:44:40;;;;;;;19.27;17.50;;;21.10;99.90;;;;;;5091300;28;20779;-71
2021/07/27 03:47:07;;;;;;;19.77;17.97;;;21.20;99.90;;;;;;5092142;28;20216;-71
2021/07/27 03:49:33;;;;;;;18.90;17.30;;;21.10;99.90;;;;;;5095187;28;20176;-73
2021/07/27 03:52:03;;;;;;;17.60;16.00;;;21.10;99.90;;;;;;5096025;28;20925;-71
2021/07/27 03:54:31;;;;;;;21.47;19.37;;;21.10;99.90;;;;;;5095349;28;20406;-72
2021/07/27 03:56:57;;;;;;;19.80;18.10;;;21.10;99.90;;;;;;5096142;28;20426;-71
2021/07/27 03:59:23;;;;;;;20.97;19.00;;;21.00;99.90;;;;;;5096193;28;20421;-71
2021/07/27 04:01:50;;;;;;;20.43;18.43;;;21.00;99.90;;;;;;5094232;28;20501;-71
2021/07/27 04:04:18;;;;;;;20.50;18.47;;;21.10;99.90;;;;;;5095606;28;20430;-71
2021/07/27 04:06:47;;;;;;;19.73;17.77;;;21.10;99.90;;;;;;5095039;28;20411;-71
2021/07/27 04:09:12;;;;;;;19.97;18.17;;;21.10;99.90;;;;;;5095847;28;20495;-70
2021/07/27 04:11:38;;;;;;;21.73;19.90;;;21.10;99.90;;;;;;5094888;28;20445;-71
2021/07/27 04:14:04;;;;;;;20.23;18.23;;;21.10;99.90;;;;;;5094570;28;20643;-70
2021/07/27 04:16:29;;;;;;;21.40;19.27;;;21.10;99.90;;;;;;5094737;28;20255;-74
2021/07/27 04:18:55;;;;;;;18.80;17.10;;;21.00;99.90;;;;;;5094115;28;20172;-70
2021/07/27 04:21:21;;;;;;;18.63;16.93;;;21.00;99.90;;;;;;5095596;28;20230;-70
2021/07/27 04:23:47;;;;;;;20.03;18.00;;;21.00;99.90;;;;;;5094462;28;20232;-71
2021/07/27 04:26:12;;;;;;;18.73;17.07;;;21.00;99.90;;;;;;5095305;28;20172;-70
2021/07/27 04:28:38;;;;;;;20.97;18.97;;;21.10;99.90;;;;;;5094646;28;20298;-70
2021/07/27 04:31:04;;;;;;;17.43;15.80;;;21.10;99.90;;;;;;5094885;28;20176;-71
2021/07/27 04:33:29;;;;;;;18.03;16.30;;;21.10;99.90;;;;;;5093580;28;20168;-76
2021/07/27 04:35:55;;;;;;;19.37;17.60;;;21.10;99.90;;;;;;5095333;28;20177;-71
2021/07/27 04:38:24;;;;;;;25.17;22.73;;;21.20;99.90;;;;;;5095533;28;20267;-71
2021/07/27 04:40:53;;;;;;;18.80;17.10;;;21.20;99.90;;;;;;5094476;28;20778;-70
2021/07/27 04:43:19;;;;;;;18.50;16.70;;;21.20;99.90;;;;;;5094889;28;20762;-71
2021/07/27 04:45:45;;;;;;;20.60;16.67;;;21.20;99.90;;;;;;5093607;28;20465;-71
2021/07/27 04:48:11;;;;;;;17.03;15.53;;;21.20;99.90;;;;;;5093423;28;20446;-70
2021/07/27 04:50:37;;;;;;;18.63;16.90;;;21.20;99.90;;;;;;5094250;28;20544;-71
2021/07/27 04:53:09;;;;;;;19.13;17.20;;;21.20;99.90;;;;;;5094971;28;20175;-72
2021/07/27 04:55:38;;;;;;;21.43;19.43;;;21.30;99.90;;;;;;5093338;28;20457;-70
2021/07/27 04:58:04;;;;;;;20.20;18.23;;;21.30;99.90;;;;;;5110822;28;20504;-70
2021/07/27 05:00:31;;;;;;;23.67;21.20;;;21.30;99.90;;;;;;5106866;28;20481;-78
2021/07/27 05:02:59;;;;;;;25.27;22.70;;;21.30;99.90;;;;;;5093626;28;20426;-71
2021/07/27 05:05:25;;;;;;;25.90;23.20;;;21.30;99.90;;;;;;5093962;28;20853;-71
2021/07/27 05:07:51;;;;;;;24.70;22.27;;;21.30;99.90;;;;;;5093181;28;20465;-70
2021/07/27 05:10:18;;;;;;;25.10;22.33;;;21.30;99.90;;;;;;5093907;28;20417;-70
2021/07/27 05:12:44;;;;;;;27.57;24.70;;;21.30;99.90;;;;;;5093390;28;20418;-76
2021/07/27 05:15:10;;;;;;;26.10;23.17;;;21.30;99.90;;;;;;5108149;28;20419;-71
2021/07/27 05:17:37;;;;;;;30.50;27.40;;;21.40;99.90;;;;;;5092994;28;20431;-71
2021/07/27 05:20:05;;;;;;;29.27;25.27;;;21.40;99.90;;;;;;5094107;28;20406;-71
2021/07/27 05:22:32;;;;;;;29.57;26.43;;;21.40;99.90;;;;;;5092896;28;20461;-71
2021/07/27 05:24:58;;;;;;;26.70;23.83;;;21.30;99.90;;;;;;5093665;28;20759;-72
2021/07/27 05:27:25;;;;;;;28.53;25.53;;;21.20;99.90;;;;;;5093766;28;20454;-71
2021/07/27 05:29:55;;;;;;;28.63;25.67;;;21.30;99.90;;;;;;5094340;28;20183;-74
2021/07/27 05:32:22;;;;;;;30.13;26.90;;;21.30;99.90;;;;;;5095662;28;20790;-72
2021/07/27 05:34:48;;;;;;;29.70;26.50;;;21.50;99.90;;;;;;5093895;28;20453;-72
2021/07/27 05:37:14;;;;;;;27.83;25.13;;;21.60;99.90;;;;;;5094226;28;20457;-72
2021/07/27 05:39:40;;;;;;;24.33;21.83;;;21.70;99.90;;;;;;5093923;28;20434;-72
2021/07/27 05:42:05;;;;;;;26.47;23.80;;;21.90;99.90;;;;;;5094197;28;20498;-72
2021/07/27 05:44:31;;;;;;;29.60;26.70;;;22.00;99.90;;;;;;5093351;28;20614;-73
2021/07/27 05:46:59;;;;;;;28.10;24.27;;;22.10;99.90;;;;;;5094179;28;20176;-72
2021/07/27 05:49:26;;;;;;;24.70;22.33;;;22.20;99.90;;;;;;5092848;28;20513;-72
2021/07/27 05:51:52;;;;;;;26.00;23.20;;;22.30;99.90;;;;;;5093675;28;20455;-72
2021/07/27 05:54:19;;;;;;;27.73;25.03;;;22.40;99.90;;;;;;5094006;28;20453;-72
2021/07/27 05:56:47;;;;;;;26.43;23.27;;;22.60;99.90;;;;;;5093347;28;20509;-72
2021/07/27 05:59:14;;;;;;;26.13;23.63;;;22.60;99.90;;;;;;5094008;28;20421;-72
2021/07/27 06:01:40;;;;;;;24.80;22.23;;;22.70;99.90;;;;;;5093546;28;20753;-72
2021/07/27 06:04:05;;;;;;;24.07;21.67;;;22.70;99.90;;;;;;5094013;28;20399;-72
2021/07/27 06:06:32;;;;;;;22.57;20.47;;;22.80;99.90;;;;;;5093461;28;20171;-75
2021/07/27 06:09:03;;;;;;;22.67;20.40;;;22.70;99.90;;;;;;5093584;28;20203;-72
2021/07/27 06:11:30;;;;;;;22.53;20.17;;;22.70;99.90;;;;;;5101923;28;20424;-72
2021/07/27 06:14:03;;;;;;;20.80;18.70;;;22.70;99.90;;;;;;5114068;28;20438;-72
2021/07/27 06:16:31;;;;;;;20.07;18.20;;;22.70;99.90;;;;;;5114331;28;20740;-72
2021/07/27 06:18:57;;;;;;;20.63;18.63;;;22.70;99.90;;;;;;5114303;28;20413;-72
2021/07/27 06:21:23;;;;;;;26.30;24.07;;;22.80;99.90;;;;;;5114070;28;20418;-72
2021/07/27 06:23:48;;;;;;;18.10;16.50;;;22.80;99.90;;;;;;5112258;28;20437;-72
2021/07/27 06:26:14;;;;;;;19.87;18.00;;;22.90;99.90;;;;;;5113968;28;20175;-72
2021/07/27 06:28:40;;;;;;;18.73;17.03;;;22.90;99.90;;;;;;5094993;28;20191;-72
2021/07/27 06:31:13;;;;;;;20.30;18.40;;;22.90;99.90;;;;;;5094711;28;20176;-72
2021/07/27 06:33:42;;;;;;;19.57;17.70;;;23.00;99.90;;;;;;5091467;28;20580;-72
2021/07/27 06:36:08;;;;;;;17.23;15.73;;;23.00;99.90;;;;;;5093870;28;20840;-73
2021/07/27 06:38:35;;;;;;;22.97;20.77;;;22.90;99.90;;;;;;5096622;28;20417;-79
2021/07/27 06:41:04;;;;;;;23.93;21.70;;;22.90;99.90;;;;;;5098960;28;20427;-73
2021/07/27 06:43:29;;;;;;;20.70;18.90;;;23.00;99.90;;;;;;5095547;28;20418;-72
2021/07/27 06:45:56;;;;;;;17.50;16.00;;;23.00;99.90;;;;;;5091212;28;20434;-72
2021/07/27 06:48:22;;;;;;;20.20;18.33;;;23.00;99.90;;;;;;5093089;28;20211;-72
2021/07/27 06:50:50;;;;;;;19.40;17.80;;;23.00;99.90;;;;;;5092502;28;20474;-72
2021/07/27 06:53:16;;;;;;;16.90;15.50;;;23.00;99.90;;;;;;5093108;28;20839;-72
2021/07/27 06:55:42;;;;;;;20.13;18.13;;;22.90;99.90;;;;;;5099596;28;20413;-72
2021/07/27 06:58:08;;;;;;;17.87;16.20;;;22.90;99.90;;;;;;5098158;28;20494;-72
2021/07/27 07:00:34;;;;;;;17.57;15.87;;;22.90;99.90;;;;;;5093683;28;20222;-78
2021/07/27 07:03:00;;;;;;;16.80;15.30;;;23.00;99.90;;;;;;5113458;28;20247;-72
2021/07/27 07:05:26;;;;;;;18.03;16.50;;;22.90;99.90;;;;;;5113343;28;20397;-72
2021/07/27 07:07:51;;;;;;;16.13;14.63;;;22.80;99.90;;;;;;5112609;28;20452;-72
2021/07/27 07:10:17;;;;;;;17.27;15.67;;;22.80;99.90;;;;;;5113242;28;20254;-72
2021/07/27 07:12:43;;;;;;;13.67;12.50;;;22.90;99.90;;;;;;5104920;28;20163;-73
2021/07/27 07:15:09;;;;;;;15.00;13.60;;;22.80;99.90;;;;;;5112135;28;20187;-72
2021/07/27 07:17:35;;;;;;;14.53;13.23;;;22.80;99.90;;;;;;5112515;28;20194;-78
2021/07/27 07:20:00;;;;;;;14.60;13.40;;;22.80;99.90;;;;;;5106027;28;20411;-73
2021/07/27 07:22:29;;;;;;;13.80;12.50;;;22.80;99.90;;;;;;5091761;28;20259;-72
2021/07/27 07:24:55;;;;;;;13.97;12.57;;;22.90;99.90;;;;;;5091872;28;20199;-72
2021/07/27 07:27:20;;;;;;;14.50;13.40;;;22.90;99.90;;;;;;5092602;28;20450;-72
2021/07/27 07:29:46;;;;;;;14.47;13.00;;;22.90;99.90;;;;;;5092066;28;20180;-72
2021/07/27 07:32:12;;;;;;;12.90;11.83;;;22.90;99.80;;;;;;5092604;28;20620;-72
2021/07/27 07:34:37;;;;;;;15.17;13.80;;;22.90;99.90;;;;;;5091341;28;20176;-73
2021/07/27 07:37:06;;;;;;;14.50;13.17;;;22.90;99.80;;;;;;5092517;28;20213;-72
2021/07/27 07:39:33;;;;;;;14.07;12.87;;;22.80;99.70;;;;;;5092526;28;20172;-72
2021/07/27 07:41:59;;;;;;;13.30;12.10;;;22.80;99.90;;;;;;5091869;28;20403;-72
2021/07/27 07:44:25;;;;;;;13.53;12.27;;;22.80;99.90;;;;;;5092325;28;20458;-72
2021/07/27 07:46:51;;;;;;;13.73;12.30;;;22.80;99.90;;;;;;5092030;28;20177;-72
2021/07/27 07:49:17;;;;;;;13.67;12.53;;;22.80;99.90;;;;;;5111521;28;20468;-71
2021/07/27 07:51:47;;;;;;;13.70;12.50;;;22.70;99.90;;;;;;5091747;28;20898;-72
2021/07/27 07:54:14;;;;;;;12.20;11.20;;;22.70;99.90;;;;;;5090980;28;20414;-72
2021/07/27 07:56:46;;;;;;;14.07;12.87;;;22.80;99.90;;;;;;5091817;28;20416;-72
2021/07/27 07:59:13;;;;;;;11.77;10.77;;;22.70;99.80;;;;;;5108993;28;20418;-71
2021/07/27 08:01:44;;;;;;;14.20;12.90;;;22.70;99.90;;;;;;5096181;28;20472;-78
2021/07/27 08:04:10;;;;;;;13.10;11.93;;;22.60;99.90;;;;;;5091997;28;20491;-72
2021/07/27 08:06:35;;;;;;;15.93;14.53;;;22.60;99.90;;;;;;5091256;28;20458;-72
2021/07/27 08:09:01;;;;;;;13.87;12.57;;;22.60;99.90;;;;;;5091008;28;20275;-72
2021/07/27 08:11:27;;;;;;;13.57;12.43;;;22.70;99.90;;;;;;5090718;28;20177;-72
2021/07/27 08:13:55;;;;;;;12.70;11.60;;;22.80;99.90;;;;;;5094576;28;20178;-72
2021/07/27 08:16:21;;;;;;;13.77;12.67;;;22.90;99.90;;;;;;5112668;28;20180;-72
2021/07/27 08:18:47;;;;;;;12.20;11.10;;;22.80;99.40;;;;;;5112020;28;20493;-72
2021/07/27 08:21:14;;;;;;;13.23;12.13;;;22.90;99.90;;;;;;5105672;28;20912;-72
2021/07/27 08:23:44;;;;;;;12.37;11.27;;;23.00;99.60;;;;;;5111905;28;20478;-79
2021/07/27 08:26:16;;;;;;;11.83;10.93;;;22.90;98.80;;;;;;5112126;28;20932;-72
2021/07/27 08:28:43;;;;;;;12.97;11.77;;;23.10;99.60;;;;;;5111890;28;20524;-72
2021/07/27 08:31:09;;;;;;;12.93;11.73;;;23.10;98.90;;;;;;5112812;28;20431;-72
2021/07/27 08:33:35;;;;;;;14.63;11.73;;;23.10;99.00;;;;;;5112195;28;20435;-72
2021/07/27 08:36:01;;;;;;;11.97;10.97;;;23.20;99.50;;;;;;5115432;28;20410;-72
2021/07/27 08:38:26;;;;;;;13.47;12.37;;;23.30;98.80;;;;;;5116107;28;20178;-72
2021/07/27 08:40:57;;;;;;;13.13;12.03;;;23.30;98.40;;;;;;5114279;28;20195;-72
2021/07/27 08:43:24;;;;;;;11.47;10.57;;;23.30;98.50;;;;;;5115874;28;20172;-72
2021/07/27 08:45:53;;;;;;;11.90;10.90;;;23.40;98.60;;;;;;5114804;28;20442;-72
2021/07/27 08:48:19;;;;;;;12.63;11.73;;;23.40;98.10;;;;;;5115833;28;20952;-72
2021/07/27 08:50:45;;;;;;;11.80;10.80;;;23.60;98.70;;;;;;5115222;28;20436;-72
2021/07/27 08:53:12;;;;;;;13.80;11.30;;;23.70;97.50;;;;;;5115779;28;20406;-72
2021/07/27 08:55:38;;;;;;;11.80;10.77;;;23.80;98.60;;;;;;5115762;28;20496;-72
2021/07/27 08:58:04;;;;;;;13.27;12.17;;;23.80;96.30;;;;;;5115153;28;20421;-72
2021/07/27 09:00:32;;;;;;;13.07;12.00;;;23.90;96.80;;;;;;5115657;28;20410;-72
2021/07/27 09:03:29;;;;;;;11.57;10.60;;;23.90;96.60;;;;;;5114978;27;20398;-72
2021/07/27 09:06:05;;;;;;;12.97;11.87;;;24.00;97.00;;;;;;5080657;28;20426;-72
2021/07/27 09:08:31;;;;;;;12.70;11.70;;;24.10;96.90;;;;;;5115490;28;20477;-73
2021/07/27 09:11:01;;;;;;;13.97;12.87;;;24.20;96.80;;;;;;5113553;28;20452;-72
2021/07/27 09:13:33;;;;;;;12.30;11.30;;;24.20;95.80;;;;;;5115492;28;20172;-72
2021/07/27 09:16:00;;;;;;;12.43;11.37;;;24.30;97.00;;;;;;5114092;28;20964;-72
2021/07/27 09:18:29;;;;;;;13.77;12.67;;;24.40;97.60;;;;;;5115014;28;20398;-72
2021/07/27 09:20:55;;;;;;;14.57;13.53;;;24.50;96.10;;;;;;5113505;28;20494;-72
2021/07/27 09:23:28;;;;;;;13.90;12.90;;;24.40;96.00;;;;;;5103157;28;20453;-72
2021/07/27 09:25:56;;;;;;;14.33;13.33;;;24.30;96.60;;;;;;5103154;28;20893;-74
2021/07/27 09:28:23;;;;;;;14.13;13.03;;;24.40;96.30;;;;;;5103784;28;20453;-72
2021/07/27 09:30:54;;;;;;;13.40;12.40;;;24.20;95.50;;;;;;5102057;28;20924;-73
2021/07/27 09:33:31;;;;;;;17.53;15.77;;;24.20;95.10;;;;;;5103161;28;20920;-72
2021/07/27 09:35:57;;;;;;;15.30;14.10;;;24.10;95.60;;;;;;5100911;28;20394;-72
2021/07/27 09:38:24;;;;;;;12.60;11.43;;;24.10;95.50;;;;;;5102667;28;20421;-72
2021/07/27 09:40:53;;;;;;;13.17;12.07;;;24.20;95.60;;;;;;5093797;28;20406;-72
2021/07/27 09:43:21;;;;;;;13.43;12.20;;;24.20;95.40;;;;;;5094099;28;20418;-73
2021/07/27 09:45:55;;;;;;;14.43;13.43;;;24.30;96.00;;;;;;5093149;28;20454;-72
2021/07/27 09:48:21;;;;;;;13.30;12.20;;;24.40;95.30;;;;;;5094285;28;20863;-72
2021/07/27 09:50:52;;;;;;;14.03;12.90;;;24.40;96.50;;;;;;5093667;28;20502;-71
2021/07/27 09:53:19;;;;;;;13.97;12.87;;;24.40;95.70;;;;;;5093964;28;20394;-72
2021/07/27 09:55:45;;;;;;;14.87;13.57;;;24.30;94.90;;;;;;5093837;28;20406;-73
2021/07/27 09:58:11;;;;;;;18.70;17.10;;;24.30;95.20;;;;;;5094186;28;20436;-72
2021/07/27 10:01:06;;;;;;;20.87;18.90;;;24.30;95.10;;;;;;5094133;28;20448;-72
2021/07/27 10:03:37;;;;;;;21.40;19.40;;;24.30;95.70;;;;;;5094074;28;20399;-72
2021/07/27 10:06:04;;;;;;;21.07;19.07;;;24.30;96.00;;;;;;5093468;28;20421;-72
2021/07/27 10:08:34;;;;;;;20.37;18.63;;;24.50;96.50;;;;;;5093813;28;20465;-72
2021/07/27 10:11:07;;;;;;;19.20;17.40;;;24.70;95.80;;;;;;5093276;28;20415;-72
2021/07/27 10:13:35;;;;;;;18.20;16.70;;;24.90;95.00;;;;;;5093738;28;20433;-72
2021/07/27 10:16:02;;;;;;;17.07;15.40;;;24.90;94.30;;;;;;5093221;28;20981;-72
2021/07/27 10:18:32;;;;;;;16.00;14.50;;;24.90;93.70;;;;;;5093760;28;20890;-72
2021/07/27 10:21:24;;;;;;;15.27;13.97;;;24.90;94.90;;;;;;5092847;28;20425;-72
2021/07/27 10:23:51;;;;;;;14.93;13.63;;;25.10;95.20;;;;;;5093042;28;20410;-72
2021/07/27 10:26:32;;;;;;;15.40;14.30;;;25.10;94.60;;;;;;5093620;28;20399;-72
2021/07/27 10:28:58;;;;;;;14.23;13.00;;;25.30;95.00;;;;;;5092965;28;20458;-72
2021/07/27 10:31:54;;;;;;;13.07;12.03;;;25.60;93.60;;;;;;5093279;28;20490;-72
2021/07/27 10:34:20;;;;;;;15.37;14.07;;;25.70;92.70;;;;;;5084616;28;20505;-72
2021/07/27 10:36:47;;;;;;;15.40;13.90;;;25.70;91.90;;;;;;5091740;28;20453;-76
2021/07/27 10:39:19;;;;;;;14.87;13.47;;;25.60;91.20;;;;;;5092625;28;20226;-72
2021/07/27 10:41:50;;;;;;;14.53;13.27;;;25.30;90.90;;;;;;5093002;28;20455;-72
2021/07/27 10:44:20;;;;;;;14.77;13.30;;;25.30;93.10;;;;;;5094876;28;20493;-72
2021/07/27 10:46:49;;;;;;;13.43;12.20;;;25.40;94.20;;;;;;5102995;28;20432;-79
2021/07/27 10:49:17;;;;;;;13.20;12.00;;;25.50;92.80;;;;;;5093657;28;20449;-73
2021/07/27 10:51:47;;;;;;;12.80;11.77;;;25.60;92.60;;;;;;5092728;28;20422;-73
2021/07/27 10:54:15;;;;;;;13.00;11.90;;;25.80;91.50;;;;;;5093006;28;20383;-72
2021/07/27 10:56:56;;;;;;;21.97;20.07;;;25.90;91.70;;;;;;5093068;28;20425;-78
2021/07/27 10:59:24;;;;;;;14.33;13.13;;;25.90;90.70;;;;;;5092701;28;20428;-72
2021/07/27 11:01:54;;;;;;;14.20;13.10;;;25.90;90.90;;;;;;5092355;28;20489;-72
2021/07/27 11:04:29;;;;;;;14.00;12.80;;;25.70;91.40;;;;;;5092837;28;20394;-72
2021/07/27 11:07:12;;;;;;;15.57;14.23;;;25.60;91.40;;;;;;5092410;28;20421;-72
2021/07/27 11:09:50;;;;;;;16.90;15.40;;;25.60;91.60;;;;;;5092343;28;20425;-72
2021/07/27 11:12:35;;;;;;;13.27;12.17;;;25.60;92.10;;;;;;5092290;28;20453;-73
2021/07/27 11:15:31;;;;;;;14.40;13.00;;;25.50;91.80;;;;;;5091863;28;20483;-73
2021/07/27 11:18:01;;;;;;;14.00;12.90;;;25.40;92.10;;;;;;5092306;28;20403;-74
2021/07/27 11:20:31;;;;;;;13.73;12.67;;;25.40;92.00;;;;;;5092726;28;20493;-73
2021/07/27 11:22:59;;;;;;;15.60;14.40;;;25.30;91.80;;;;;;5092099;28;20406;-73
2021/07/27 11:25:26;;;;;;;14.90;13.60;;;25.20;92.00;;;;;;5092998;28;20923;-73
2021/07/27 11:27:53;;;;;;;11.40;10.30;;;25.10;92.10;;;;;;5092076;28;20449;-73
2021/07/27 11:30:22;;;;;;;10.37;9.57;;;25.00;92.00;;;;;;5092812;28;20453;-73
2021/07/27 11:32:51;;;;;;;10.80;10.00;;;24.90;92.40;;;;;;5092573;28;20430;-73
2021/07/27 11:35:25;;;;;;;11.70;10.53;;;24.90;92.80;;;;;;5091405;28;20410;-73
2021/07/27 11:38:02;;;;;;;11.87;10.97;;;24.90;92.50;;;;;;5092055;28;20478;-72
2021/07/27 11:40:29;;;;;;;11.83;11.03;;;24.80;93.10;;;;;;5092505;28;20398;-72
2021/07/27 11:43:06;;;;;;;10.60;9.77;;;24.90;93.30;;;;;;5091977;28;20409;-72
2021/07/27 11:45:40;;;;;;;11.77;10.80;;;24.90;93.30;;;;;;5090954;28;20532;-72
2021/07/27 11:48:06;;;;;;;10.20;9.50;;;24.90;93.00;;;;;;5091863;28;20446;-72
2021/07/27 11:50:34;;;;;;;11.83;10.97;;;25.10;93.60;;;;;;5092389;28;20502;-72
2021/07/27 11:53:03;;;;;;;11.37;10.30;;;25.00;92.40;;;;;;5091869;28;20862;-72
2021/07/27 11:55:34;;;;;;;11.20;10.30;;;24.80;93.30;;;;;;5092419;28;20394;-72
2021/07/27 11:58:00;;;;;;;12.63;11.50;;;24.70;93.10;;;;;;5091977;28;20397;-72
2021/07/27 12:00:28;;;;;;;10.87;9.97;;;24.60;94.20;;;;;;5092251;28;20429;-72
2021/07/27 12:02:54;;;;;;;12.00;11.20;;;24.60;93.30;;;;;;5091808;28;20436;-72
2021/07/27 12:05:20;;;;;;;11.20;10.40;;;24.60;92.80;;;;;;5092361;28;20455;-72
2021/07/27 12:07:46;;;;;;;11.93;10.60;;;24.70;93.60;;;;;;5092252;28;20446;-72
2021/07/27 12:10:13;;;;;;;10.80;9.70;;;24.70;93.90;;;;;;5095192;28;20402;-73
2021/07/27 12:12:39;;;;;;;11.30;10.30;;;24.70;93.90;;;;;;5096068;28;20414;-72
2021/07/27 12:15:06;;;;;;;12.00;11.00;;;24.70;94.90;;;;;;5093961;28;20470;-72
2021/07/27 12:17:31;;;;;;;13.87;12.87;;;24.80;95.70;;;;;;5094923;28;20181;-72
2021/07/27 12:19:57;;;;;;;11.03;10.10;;;24.80;94.20;;;;;;5095441;28;20410;-72
2021/07/27 12:22:23;;;;;;;13.23;12.23;;;24.70;93.90;;;;;;5095864;28;20172;-71
2021/07/27 12:24:48;;;;;;;11.70;10.80;;;24.70;94.50;;;;;;5095554;28;20541;-71
2021/07/27 12:27:14;;;;;;;12.37;11.40;;;24.80;95.10;;;;;;5093940;28;20169;-71
2021/07/27 12:29:40;;;;;;;12.10;11.10;;;24.90;94.50;;;;;;5095763;28;20180;-72
2021/07/27 12:32:06;;;;;;;12.43;11.20;;;25.00;94.90;;;;;;5093888;28;20181;-72
2021/07/27 12:34:32;;;;;;;11.70;10.70;;;25.10;95.70;;;;;;5095592;28;20184;-72
2021/07/27 12:36:58;;;;;;;11.30;10.30;;;25.30;95.00;;;;;;5095037;28;20406;-72
2021/07/27 12:39:24;;;;;;;12.20;11.17;;;25.40;94.90;;;;;;5095693;28;20407;-72
2021/07/27 12:41:51;;;;;;;13.17;12.27;;;25.60;93.80;;;;;;5095603;28;20253;-72
2021/07/27 12:44:17;;;;;;;12.73;11.93;;;25.70;93.20;;;;;;5095058;28;20454;-72
2021/07/27 12:46:43;;;;;;;10.33;9.43;;;25.70;92.60;;;;;;5095337;28;20422;-72
2021/07/27 12:49:13;;;;;;;11.17;10.13;;;25.80;93.00;;;;;;5093543;28;20442;-71
2021/07/27 12:51:40;;;;;;;13.20;12.00;;;25.90;92.10;;;;;;5095380;28;20418;-72
2021/07/27 12:54:07;;;;;;;14.03;12.73;;;25.90;90.90;;;;;;5094909;28;20455;-72
2021/07/27 12:56:38;;;;;;;10.77;10.07;;;26.00;90.90;;;;;;5095178;28;20402;-72